Snow/Ice From: 16-12-2017 16:00 Until: 17-12-2017 16:00 warning for: Snow/Ice Level: Yellow info button

Although rather usual in this region, locally or potentially dangerous phenomena are expected. (such as local winds, summer thunderstorms, rising streams or high waves) Be aware and pay attention to the latest weather updates, especially if you carry out activities exposed to weather or close to a stream or shoreline. 


Meteo18 Weather Cam more information Meteo18 Weather Cam


Thunder radar more information blitzortung!


warning for Snow/Ice more information rain snow radar


Visit our other weather sites:

Template documentation
and downloads

And another site



Weather Underground History page Text

Daily Summary for November 5, 2017 Units:  Both    English   Metric
« Previous Day
Next Day »
Daily Weekly Monthly Yearly Custom
  High: Low: Average:
Temperature: 52.7 °F /  11.5 °C 39 °F /  3.9 °C 45.7 °F /  7.6 °C
Dew Point: 51.6 °F /  10.9 °C 35.4 °F /  1.9 °C 40.6 °F /  4.8 °C
Humidity: 96 % 64 % 83 %
Wind Speed: 16 mph /  25.7 km/h - 3.9 mph /  6.2 km/h
Wind Gust: 32 mph /  51.5 km/h - -
Wind:- - WNW
Pressure: 30.2 in /  1021.2 hPa 29.8 in /  1009.7 hPa -
Precipitation: 0.17 in /  4.3 mm    
Historical Graphs
 
 
Tabular Data for November 5, 2017
Time Temperature Dew Point Pressure Wind Wind Speed Wind Gust Humidity Rainfall Rate (Hourly)
00:02 51.4 °F /  10.8 °C 49.8 °F /  9.9 °C 29.8 in /  1010.0 hPa Calm   1 mph /  1.6 km/h 94 % 0.04 in /  1.0 mm
00:07 51.4 °F /  10.8 °C 49.8 °F /  9.9 °C 29.8 in /  1010.0 hPa Calm   1 mph /  1.6 km/h 94 % 0.04 in /  1.0 mm
00:12 51.3 °F /  10.7 °C 49.6 °F /  9.8 °C 29.8 in /  1009.7 hPa Calm     94 % 0.04 in /  1.0 mm
00:17 51.1 °F /  10.6 °C 49.5 °F /  9.7 °C 29.8 in /  1010.0 hPa Calm     94 % 0.04 in /  1.0 mm
00:22 51.1 °F /  10.6 °C 49.5 °F /  9.7 °C 29.8 in /  1010.0 hPa Calm     94 % 0.05 in /  1.3 mm
00:32 51.1 °F /  10.6 °C 49.5 °F /  9.7 °C 29.8 in /  1010.0 hPa Calm   1 mph /  1.6 km/h 94 % 0.05 in /  1.3 mm
00:37 51.1 °F /  10.6 °C 49.6 °F /  9.8 °C 29.8 in /  1010.0 hPa Calm   1 mph /  1.6 km/h 95 % 0.05 in /  1.3 mm
00:42 51.1 °F /  10.6 °C 49.6 °F /  9.8 °C 29.8 in /  1010.0 hPa SSW 1 mph /  1.6 km/h 1 mph /  1.6 km/h 95 % 0.03 in /  0.8 mm
00:47 51.3 °F /  10.7 °C 49.8 °F /  9.9 °C 29.8 in /  1010.0 hPa Calm   2 mph /  3.2 km/h 95 % 0.02 in /  0.5 mm
00:52 51.4 °F /  10.8 °C 50 °F /  10.0 °C 29.8 in /  1010.0 hPa SW 1 mph /  1.6 km/h 2 mph /  3.2 km/h 95 % 0.02 in /  0.5 mm
01:02 52.2 °F /  11.2 °C 51.1 °F /  10.6 °C 29.8 in /  1010.0 hPa WSW 1 mph /  1.6 km/h 3 mph /  4.8 km/h 96 % 0.02 in /  0.5 mm
01:07 52.2 °F /  11.2 °C 51.1 °F /  10.6 °C 29.8 in /  1010.4 hPa WSW 1 mph /  1.6 km/h 3 mph /  4.8 km/h 96 % 0.02 in /  0.5 mm
01:12 52.3 °F /  11.3 °C 51.3 °F /  10.7 °C 29.8 in /  1010.4 hPa West 2 mph /  3.2 km/h 3 mph /  4.8 km/h 96 % 0.04 in /  1.0 mm
01:17 52.3 °F /  11.3 °C 51.3 °F /  10.7 °C 29.8 in /  1010.4 hPa West 3 mph /  4.8 km/h 4 mph /  6.4 km/h 96 % 0.06 in /  1.5 mm
01:22 52.5 °F /  11.4 °C 51.4 °F /  10.8 °C 29.8 in /  1010.4 hPa WSW 4 mph /  6.4 km/h 6 mph /  9.7 km/h 96 % 0.05 in /  1.3 mm
01:27 52.7 °F /  11.5 °C 51.6 °F /  10.9 °C 29.9 in /  1011.1 hPa West 7 mph /  11.3 km/h 8 mph /  12.9 km/h 96 % 0.06 in /  1.5 mm
01:32 51.4 °F /  10.8 °C 49.5 °F /  9.7 °C 29.8 in /  1010.7 hPa NNW 4 mph /  6.4 km/h 32 mph /  51.5 km/h 93 % 0.13 in /  3.3 mm
01:37 50.2 °F /  10.1 °C 48.2 °F /  9.0 °C 29.9 in /  1011.1 hPa NW 7 mph /  11.3 km/h 32 mph /  51.5 km/h 93 % 0.13 in /  3.3 mm
01:42 49.3 °F /  9.6 °C 47.3 °F /  8.5 °C 29.9 in /  1011.1 hPa NE 9 mph /  14.5 km/h 32 mph /  51.5 km/h 93 % 0.15 in /  3.8 mm
01:47 48.9 °F /  9.4 °C 46.9 °F /  8.3 °C 29.9 in /  1011.4 hPa NW 12 mph /  19.3 km/h 21 mph /  33.8 km/h 93 % 0.15 in /  3.8 mm
01:52 48.6 °F /  9.2 °C 46.6 °F /  8.1 °C 29.9 in /  1011.4 hPa NNW 7 mph /  11.3 km/h 21 mph /  33.8 km/h 93 % 0.16 in /  4.1 mm
01:57 48.6 °F /  9.2 °C 46.6 °F /  8.1 °C 29.9 in /  1011.4 hPa NW 8 mph /  12.9 km/h 22 mph /  35.4 km/h 93 % 0.15 in /  3.8 mm
02:02 48.4 °F /  9.1 °C 46.4 °F /  8.0 °C 29.9 in /  1011.4 hPa NNW 7 mph /  11.3 km/h 22 mph /  35.4 km/h 93 % 0.14 in /  3.6 mm
02:07 48.4 °F /  9.1 °C 46.4 °F /  8.0 °C 29.9 in /  1011.7 hPa NNW 16 mph /  25.7 km/h 16 mph /  25.7 km/h 93 % 0.13 in /  3.3 mm
02:12 48.4 °F /  9.1 °C 46.4 °F /  8.0 °C 29.9 in /  1011.7 hPa NNW 6 mph /  9.7 km/h 16 mph /  25.7 km/h 93 % 0.12 in /  3.0 mm
02:17 48.4 °F /  9.1 °C 46.4 °F /  8.0 °C 29.9 in /  1011.4 hPa NNE 10 mph /  16.1 km/h 16 mph /  25.7 km/h 93 % 0.11 in /  2.8 mm
02:22 48.4 °F /  9.1 °C 46.2 °F /  7.9 °C 29.9 in /  1011.7 hPa North 2 mph /  3.2 km/h 16 mph /  25.7 km/h 92 % 0.1 in /  2.5 mm
02:27 48.2 °F /  9.0 °C 46 °F /  7.8 °C 29.9 in /  1011.4 hPa WNW 6 mph /  9.7 km/h 14 mph /  22.5 km/h 92 % 0.09 in /  2.3 mm
02:32 48 °F /  8.9 °C 45.5 °F /  7.5 °C 29.9 in /  1011.4 hPa West 5 mph /  8.0 km/h 16 mph /  25.7 km/h 91 % 0.03 in /  0.8 mm
02:37 47.8 °F /  8.8 °C 45.3 °F /  7.4 °C 29.9 in /  1011.4 hPa WNW 6 mph /  9.7 km/h 16 mph /  25.7 km/h 91 % 0.02 in /  0.5 mm
02:42 47.8 °F /  8.8 °C 45.3 °F /  7.4 °C 29.9 in /  1011.4 hPa NNW 3 mph /  4.8 km/h 16 mph /  25.7 km/h 91 % 0.01 in /  0.3 mm
02:47 47.8 °F /  8.8 °C 45 °F /  7.2 °C 29.9 in /  1011.7 hPa North 3 mph /  4.8 km/h 12 mph /  19.3 km/h 90 % 0 in /  0.0 mm
02:52 47.7 °F /  8.7 °C 45 °F /  7.2 °C 29.9 in /  1011.7 hPa NNW 4 mph /  6.4 km/h 12 mph /  19.3 km/h 90 % 0 in /  0.0 mm
02:57 47.7 °F /  8.7 °C 45 °F /  7.2 °C 29.9 in /  1011.7 hPa WNW 5 mph /  8.0 km/h 11 mph /  17.7 km/h 90 % 0 in /  0.0 mm
03:02 47.7 °F /  8.7 °C 45 °F /  7.2 °C 29.9 in /  1011.7 hPa NNW 9 mph /  14.5 km/h 11 mph /  17.7 km/h 90 % 0 in /  0.0 mm
03:07 47.7 °F /  8.7 °C 45 °F /  7.2 °C 29.9 in /  1011.7 hPa NNW 2 mph /  3.2 km/h 11 mph /  17.7 km/h 90 % 0 in /  0.0 mm
03:12 47.5 °F /  8.6 °C 44.8 °F /  7.1 °C 29.9 in /  1011.7 hPa NW 2 mph /  3.2 km/h 11 mph /  17.7 km/h 90 % 0 in /  0.0 mm
03:17 47.5 °F /  8.6 °C 44.4 °F /  6.9 °C 29.9 in /  1012.1 hPa NNW 9 mph /  14.5 km/h 11 mph /  17.7 km/h 89 % 0 in /  0.0 mm
03:22 47.5 °F /  8.6 °C 44.4 °F /  6.9 °C 29.9 in /  1012.1 hPa NNW 9 mph /  14.5 km/h 13 mph /  20.9 km/h 89 % 0 in /  0.0 mm
03:27 46.9 °F /  8.3 °C 43.9 °F /  6.6 °C 29.9 in /  1012.1 hPa WNW 6 mph /  9.7 km/h 13 mph /  20.9 km/h 89 % 0 in /  0.0 mm
03:32 46.9 °F /  8.3 °C 43.9 °F /  6.6 °C 29.9 in /  1012.1 hPa WNW 6 mph /  9.7 km/h 13 mph /  20.9 km/h 89 % 0 in /  0.0 mm
03:37 46.9 °F /  8.3 °C 43.9 °F /  6.6 °C 29.9 in /  1012.1 hPa WNW 6 mph /  9.7 km/h 11 mph /  17.7 km/h 89 % 0 in /  0.0 mm
08:27 43.3 °F /  6.3 °C 40.8 °F /  4.9 °C 30 in /  1015.5 hPa WSW 1 mph /  1.6 km/h -998.7 mph /  -1607.4 km/h 91 % 0 in /  0 mm
08:32 43.5 °F /  6.4 °C 40.8 °F /  4.9 °C 30 in /  1015.5 hPa West 2 mph /  3.2 km/h 3 mph /  4.8 km/h 90 % 0 in /  0.0 mm
08:37 43.5 °F /  6.4 °C 40.8 °F /  4.9 °C 30 in /  1015.5 hPa NW 2 mph /  3.2 km/h 3 mph /  4.8 km/h 90 % 0 in /  0.0 mm
08:42 43.7 °F /  6.5 °C 41 °F /  5.0 °C 30 in /  1015.5 hPa West 3 mph /  4.8 km/h 7 mph /  11.3 km/h 90 % 0 in /  0.0 mm
08:47 43.9 °F /  6.6 °C 40.8 °F /  4.9 °C 30 in /  1015.5 hPa West 5 mph /  8.0 km/h 10 mph /  16.1 km/h 89 % 0 in /  0.0 mm
08:52 44.1 °F /  6.7 °C 41 °F /  5.0 °C 30 in /  1015.5 hPa West 4 mph /  6.4 km/h 10 mph /  16.1 km/h 89 % 0 in /  0.0 mm
08:57 44.2 °F /  6.8 °C 41.2 °F /  5.1 °C 30 in /  1015.5 hPa NW 5 mph /  8.0 km/h 15 mph /  24.1 km/h 89 % 0 in /  0.0 mm
09:02 44.4 °F /  6.9 °C 41.4 °F /  5.2 °C 30 in /  1015.8 hPa West 2 mph /  3.2 km/h 15 mph /  24.1 km/h 89 % 0 in /  0.0 mm
09:07 44.8 °F /  7.1 °C 41.7 °F /  5.4 °C 30 in /  1015.8 hPa West 3 mph /  4.8 km/h 15 mph /  24.1 km/h 89 % 0 in /  0.0 mm
09:12 44.8 °F /  7.1 °C 41.7 °F /  5.4 °C 30 in /  1015.8 hPa WSW 2 mph /  3.2 km/h 8 mph /  12.9 km/h 89 % 0 in /  0.0 mm
09:17 45 °F /  7.2 °C 41.5 °F /  5.3 °C 30 in /  1015.8 hPa WNW 6 mph /  9.7 km/h 9 mph /  14.5 km/h 88 % 0 in /  0.0 mm
09:27 45.1 °F /  7.3 °C 41.5 °F /  5.3 °C 30 in /  1015.8 hPa West 6 mph /  9.7 km/h 12 mph /  19.3 km/h 87 % 0 in /  0.0 mm
09:32 45.1 °F /  7.3 °C 41.2 °F /  5.1 °C 30 in /  1016.1 hPa NNW 7 mph /  11.3 km/h 12 mph /  19.3 km/h 86 % 0 in /  0.0 mm
09:37 45.3 °F /  7.4 °C 41.4 °F /  5.2 °C 30 in /  1016.1 hPa WNW 4 mph /  6.4 km/h 19 mph /  30.6 km/h 86 % 0 in /  0.0 mm
09:42 45.5 °F /  7.5 °C 41.5 °F /  5.3 °C 30 in /  1016.1 hPa West 6 mph /  9.7 km/h 19 mph /  30.6 km/h 86 % 0 in /  0.0 mm
09:47 45.9 °F /  7.7 °C 41.9 °F /  5.5 °C 30 in /  1016.1 hPa West 5 mph /  8.0 km/h 19 mph /  30.6 km/h 86 % 0 in /  0.0 mm
09:52 46 °F /  7.8 °C 42.1 °F /  5.6 °C 30 in /  1016.1 hPa WNW 12 mph /  19.3 km/h 13 mph /  20.9 km/h 86 % 0 in /  0.0 mm
09:57 46 °F /  7.8 °C 42.1 °F /  5.6 °C 30 in /  1016.5 hPa WNW 6 mph /  9.7 km/h 13 mph /  20.9 km/h 86 % 0 in /  0.0 mm
10:02 46.2 °F /  7.9 °C 42.3 °F /  5.7 °C 30 in /  1016.5 hPa WNW 4 mph /  6.4 km/h 14 mph /  22.5 km/h 86 % 0 in /  0.0 mm
10:12 45.7 °F /  7.6 °C 41.7 °F /  5.4 °C 30 in /  1016.5 hPa West 9 mph /  14.5 km/h 19 mph /  30.6 km/h 86 % 0 in /  0.0 mm
10:17 45.7 °F /  7.6 °C 41.7 °F /  5.4 °C 30 in /  1016.5 hPa WNW 6 mph /  9.7 km/h 19 mph /  30.6 km/h 86 % 0 in /  0.0 mm
10:22 45.7 °F /  7.6 °C 41.4 °F /  5.2 °C 30 in /  1016.5 hPa West 6 mph /  9.7 km/h 16 mph /  25.7 km/h 85 % 0 in /  0.0 mm
10:27 46 °F /  7.8 °C 42.1 °F /  5.6 °C 30 in /  1016.5 hPa WNW 3 mph /  4.8 km/h 16 mph /  25.7 km/h 86 % 0 in /  0.0 mm
10:32 46.4 °F /  8.0 °C 42.1 °F /  5.6 °C 30 in /  1016.5 hPa WNW 4 mph /  6.4 km/h 15 mph /  24.1 km/h 85 % 0 in /  0.0 mm
10:37 46.8 °F /  8.2 °C 41.9 °F /  5.5 °C 30 in /  1016.5 hPa WNW 5 mph /  8.0 km/h 15 mph /  24.1 km/h 83 % 0 in /  0.0 mm
10:42 46.9 °F /  8.3 °C 42.1 °F /  5.6 °C 30 in /  1016.8 hPa West 6 mph /  9.7 km/h 15 mph /  24.1 km/h 83 % 0 in /  0.0 mm
10:47 47.3 °F /  8.5 °C 42.4 °F /  5.8 °C 30 in /  1016.8 hPa West 7 mph /  11.3 km/h 15 mph /  24.1 km/h 83 % 0 in /  0.0 mm
10:52 46.9 °F /  8.3 °C 41.7 °F /  5.4 °C 30 in /  1017.2 hPa West 4 mph /  6.4 km/h 16 mph /  25.7 km/h 82 % 0 in /  0.0 mm
10:57 47.1 °F /  8.4 °C 42.3 °F /  5.7 °C 30 in /  1017.2 hPa WNW 11 mph /  17.7 km/h 18 mph /  29.0 km/h 83 % 0 in /  0.0 mm
11:02 47.1 °F /  8.4 °C 41.9 °F /  5.5 °C 30 in /  1017.2 hPa NNW 8 mph /  12.9 km/h 18 mph /  29.0 km/h 82 % 0 in /  0.0 mm
11:07 46.8 °F /  8.2 °C 41.5 °F /  5.3 °C 30 in /  1017.2 hPa NW 9 mph /  14.5 km/h 18 mph /  29.0 km/h 82 % 0 in /  0.0 mm
11:12 46.9 °F /  8.3 °C 42.1 °F /  5.6 °C 30 in /  1017.2 hPa NW 6 mph /  9.7 km/h 18 mph /  29.0 km/h 83 % 0 in /  0.0 mm
11:17 47.1 °F /  8.4 °C 41.9 °F /  5.5 °C 30 in /  1017.2 hPa West 1 mph /  1.6 km/h 18 mph /  29.0 km/h 82 % 0 in /  0.0 mm
11:27 47.7 °F /  8.7 °C 42.1 °F /  5.6 °C 30 in /  1017.2 hPa NW 11 mph /  17.7 km/h 15 mph /  24.1 km/h 81 % 0 in /  0.0 mm
11:32 47.5 °F /  8.6 °C 41.9 °F /  5.5 °C 30 in /  1017.2 hPa WSW 3 mph /  4.8 km/h 15 mph /  24.1 km/h 81 % 0 in /  0.0 mm
11:37 47.1 °F /  8.4 °C 41.5 °F /  5.3 °C 30 in /  1017.2 hPa WNW 5 mph /  8.0 km/h 15 mph /  24.1 km/h 81 % 0 in /  0.0 mm
11:42 47.1 °F /  8.4 °C 41.4 °F /  5.2 °C 30 in /  1017.2 hPa WNW 4 mph /  6.4 km/h 15 mph /  24.1 km/h 80 % 0 in /  0.0 mm
11:47 47.7 °F /  8.7 °C 41.5 °F /  5.3 °C 30 in /  1017.2 hPa WNW 6 mph /  9.7 km/h 15 mph /  24.1 km/h 79 % 0 in /  0.0 mm
11:52 47.8 °F /  8.8 °C 41.7 °F /  5.4 °C 30 in /  1017.2 hPa WNW 11 mph /  17.7 km/h 14 mph /  22.5 km/h 79 % 0 in /  0.0 mm
11:57 48.2 °F /  9.0 °C 42.1 °F /  5.6 °C 30 in /  1017.2 hPa WSW 4 mph /  6.4 km/h 14 mph /  22.5 km/h 79 % 0 in /  0.0 mm
12:02 48.7 °F /  9.3 °C 42.4 °F /  5.8 °C 30 in /  1017.2 hPa West 9 mph /  14.5 km/h 14 mph /  22.5 km/h 79 % 0 in /  0.0 mm
12:07 48.6 °F /  9.2 °C 41.7 °F /  5.4 °C 30 in /  1017.2 hPa WNW 9 mph /  14.5 km/h 14 mph /  22.5 km/h 77 % 0 in /  0.0 mm
12:12 48.6 °F /  9.2 °C 41 °F /  5.0 °C 30 in /  1017.2 hPa NW 11 mph /  17.7 km/h 14 mph /  22.5 km/h 75 % 0 in /  0.0 mm
12:17 48.4 °F /  9.1 °C 40.1 °F /  4.5 °C 30 in /  1017.2 hPa WNW 6 mph /  9.7 km/h 14 mph /  22.5 km/h 73 % 0 in /  0.0 mm
12:22 48.6 °F /  9.2 °C 40.3 °F /  4.6 °C 30 in /  1017.2 hPa NW 4 mph /  6.4 km/h 14 mph /  22.5 km/h 73 % 0 in /  0.0 mm
12:32 49.1 °F /  9.5 °C 40.8 °F /  4.9 °C 30 in /  1017.2 hPa West 9 mph /  14.5 km/h 16 mph /  25.7 km/h 73 % 0 in /  0.0 mm
12:37 48.6 °F /  9.2 °C 40.3 °F /  4.6 °C 30 in /  1017.2 hPa West 5 mph /  8.0 km/h 20 mph /  32.2 km/h 73 % 0 in /  0.0 mm
12:42 48.7 °F /  9.3 °C 40.1 °F /  4.5 °C 30.1 in /  1017.5 hPa NW 10 mph /  16.1 km/h 20 mph /  32.2 km/h 72 % 0 in /  0.0 mm
12:47 48.7 °F /  9.3 °C 40.1 °F /  4.5 °C 30 in /  1017.2 hPa WNW 12 mph /  19.3 km/h 20 mph /  32.2 km/h 72 % 0 in /  0.0 mm
12:52 48.9 °F /  9.4 °C 39.9 °F /  4.4 °C 30 in /  1017.2 hPa NNW 7 mph /  11.3 km/h 22 mph /  35.4 km/h 71 % 0 in /  0.0 mm
12:57 49.5 °F /  9.7 °C 41.2 °F /  5.1 °C 30 in /  1017.2 hPa West 5 mph /  8.0 km/h 22 mph /  35.4 km/h 73 % 0 in /  0.0 mm
13:02 48.9 °F /  9.4 °C 39.6 °F /  4.2 °C 30 in /  1017.2 hPa NW 6 mph /  9.7 km/h 15 mph /  24.1 km/h 70 % 0 in /  0.0 mm
13:07 48.7 °F /  9.3 °C 39.7 °F /  4.3 °C 30 in /  1017.2 hPa West 7 mph /  11.3 km/h 17 mph /  27.4 km/h 71 % 0 in /  0.0 mm
13:17 48.9 °F /  9.4 °C 40.3 °F /  4.6 °C 30 in /  1017.2 hPa West 8 mph /  12.9 km/h 17 mph /  27.4 km/h 72 % 0 in /  0.0 mm
13:22 49.1 °F /  9.5 °C 39.7 °F /  4.3 °C 30 in /  1017.2 hPa West 8 mph /  12.9 km/h 15 mph /  24.1 km/h 70 % 0 in /  0.0 mm
13:27 49.3 °F /  9.6 °C 39.9 °F /  4.4 °C 30 in /  1017.2 hPa WNW 6 mph /  9.7 km/h 15 mph /  24.1 km/h 70 % 0 in /  0.0 mm
13:32 49.5 °F /  9.7 °C 39.7 °F /  4.3 °C 30 in /  1017.2 hPa West 3 mph /  4.8 km/h 16 mph /  25.7 km/h 69 % 0 in /  0.0 mm
13:37 49.8 °F /  9.9 °C 40.5 °F /  4.7 °C 30 in /  1017.2 hPa WNW 3 mph /  4.8 km/h 16 mph /  25.7 km/h 70 % 0 in /  0.0 mm
13:42 50.2 °F /  10.1 °C 39.6 °F /  4.2 °C 30 in /  1017.2 hPa NNW 2 mph /  3.2 km/h 16 mph /  25.7 km/h 67 % 0 in /  0.0 mm
13:47 49.8 °F /  9.9 °C 39.7 °F /  4.3 °C 30 in /  1017.2 hPa WNW 8 mph /  12.9 km/h 12 mph /  19.3 km/h 68 % 0 in /  0.0 mm
13:52 49.5 °F /  9.7 °C 40.1 °F /  4.5 °C 30 in /  1017.2 hPa NW 10 mph /  16.1 km/h 16 mph /  25.7 km/h 70 % 0 in /  0.0 mm
13:57 49.5 °F /  9.7 °C 38.7 °F /  3.7 °C 30 in /  1017.2 hPa WNW 5 mph /  8.0 km/h 16 mph /  25.7 km/h 66 % 0 in /  0.0 mm
14:02 49.5 °F /  9.7 °C 39.4 °F /  4.1 °C 30 in /  1017.2 hPa WNW 4 mph /  6.4 km/h 16 mph /  25.7 km/h 68 % 0 in /  0.0 mm
14:07 49.1 °F /  9.5 °C 38.7 °F /  3.7 °C 30 in /  1017.2 hPa West 7 mph /  11.3 km/h 12 mph /  19.3 km/h 67 % 0 in /  0.0 mm
14:12 48.9 °F /  9.4 °C 39.2 °F /  4.0 °C 30 in /  1017.2 hPa WSW 3 mph /  4.8 km/h 15 mph /  24.1 km/h 69 % 0 in /  0.0 mm
14:17 48.7 °F /  9.3 °C 39.7 °F /  4.3 °C 30 in /  1017.2 hPa NW 4 mph /  6.4 km/h 15 mph /  24.1 km/h 71 % 0 in /  0.0 mm
14:22 48.6 °F /  9.2 °C 39.6 °F /  4.2 °C 30 in /  1017.2 hPa WNW 4 mph /  6.4 km/h 15 mph /  24.1 km/h 71 % 0 in /  0.0 mm
14:27 48.2 °F /  9.0 °C 39.9 °F /  4.4 °C 30 in /  1017.2 hPa NW 5 mph /  8.0 km/h 11 mph /  17.7 km/h 73 % 0 in /  0.0 mm
14:32 48.6 °F /  9.2 °C 40.6 °F /  4.8 °C 30 in /  1017.2 hPa NW 2 mph /  3.2 km/h 11 mph /  17.7 km/h 74 % 0 in /  0.0 mm
14:37 48.7 °F /  9.3 °C 40.1 °F /  4.5 °C 30 in /  1017.2 hPa WSW 1 mph /  1.6 km/h 11 mph /  17.7 km/h 72 % 0 in /  0.0 mm
14:42 48.6 °F /  9.2 °C 39.9 °F /  4.4 °C 30 in /  1017.2 hPa WNW 2 mph /  3.2 km/h 11 mph /  17.7 km/h 72 % 0 in /  0.0 mm
14:47 48.7 °F /  9.3 °C 39.4 °F /  4.1 °C 30 in /  1017.2 hPa NW 4 mph /  6.4 km/h 9 mph /  14.5 km/h 70 % 0 in /  0.0 mm
14:57 49.3 °F /  9.6 °C 37.9 °F /  3.3 °C 30 in /  1017.2 hPa NW 7 mph /  11.3 km/h 16 mph /  25.7 km/h 65 % 0 in /  0.0 mm
15:07 49.6 °F /  9.8 °C 38.7 °F /  3.7 °C 30.1 in /  1017.5 hPa NW 4 mph /  6.4 km/h 15 mph /  24.1 km/h 66 % 0 in /  0.0 mm
15:12 49.6 °F /  9.8 °C 38.3 °F /  3.5 °C 30.1 in /  1017.5 hPa WNW 3 mph /  4.8 km/h 15 mph /  24.1 km/h 65 % 0 in /  0.0 mm
15:17 49.8 °F /  9.9 °C 38.5 °F /  3.6 °C 30.1 in /  1017.5 hPa NW 11 mph /  17.7 km/h 15 mph /  24.1 km/h 65 % 0 in /  0.0 mm
15:22 49.8 °F /  9.9 °C 38.1 °F /  3.4 °C 30.1 in /  1017.5 hPa NNW 10 mph /  16.1 km/h 14 mph /  22.5 km/h 64 % 0 in /  0.0 mm
15:32 47.8 °F /  8.8 °C 39.2 °F /  4.0 °C 30.1 in /  1017.5 hPa North 4 mph /  6.4 km/h 15 mph /  24.1 km/h 72 % 0 in /  0.0 mm
15:37 47.5 °F /  8.6 °C 39.2 °F /  4.0 °C 30.1 in /  1017.5 hPa WNW 2 mph /  3.2 km/h 15 mph /  24.1 km/h 73 % 0 in /  0.0 mm
15:42 47.3 °F /  8.5 °C 39.7 °F /  4.3 °C 30.1 in /  1017.5 hPa NNW 2 mph /  3.2 km/h 14 mph /  22.5 km/h 75 % 0 in /  0.0 mm
15:47 47.1 °F /  8.4 °C 39.6 °F /  4.2 °C 30.1 in /  1017.5 hPa WNW 3 mph /  4.8 km/h 11 mph /  17.7 km/h 75 % 0 in /  0.0 mm
15:52 47.1 °F /  8.4 °C 39.9 °F /  4.4 °C 30.1 in /  1017.8 hPa Calm   8 mph /  12.9 km/h 76 % 0 in /  0.0 mm
15:57 47.7 °F /  8.7 °C 40.1 °F /  4.5 °C 30.1 in /  1017.8 hPa NNW 1 mph /  1.6 km/h 8 mph /  12.9 km/h 75 % 0 in /  0.0 mm
16:02 47.8 °F /  8.8 °C 39.9 °F /  4.4 °C 30.1 in /  1017.8 hPa WNW 3 mph /  4.8 km/h 7 mph /  11.3 km/h 74 % 0 in /  0.0 mm
16:12 48.4 °F /  9.1 °C 39.7 °F /  4.3 °C 30.1 in /  1017.8 hPa NNW 3 mph /  4.8 km/h 6 mph /  9.7 km/h 72 % 0 in /  0.0 mm
16:17 48.4 °F /  9.1 °C 39 °F /  3.9 °C 30.1 in /  1017.8 hPa NW 2 mph /  3.2 km/h 8 mph /  12.9 km/h 70 % 0 in /  0.0 mm
16:22 48.4 °F /  9.1 °C 39 °F /  3.9 °C 30.1 in /  1017.8 hPa WNW 3 mph /  4.8 km/h 8 mph /  12.9 km/h 70 % 0 in /  0.0 mm
16:27 48.6 °F /  9.2 °C 39.2 °F /  4.0 °C 30.1 in /  1017.8 hPa West 2 mph /  3.2 km/h 8 mph /  12.9 km/h 70 % 0 in /  0.0 mm
16:32 48.7 °F /  9.3 °C 39.7 °F /  4.3 °C 30.1 in /  1017.8 hPa WNW 7 mph /  11.3 km/h 7 mph /  11.3 km/h 71 % 0 in /  0.0 mm
16:37 48.7 °F /  9.3 °C 38.7 °F /  3.7 °C 30.1 in /  1017.8 hPa NNW 3 mph /  4.8 km/h 10 mph /  16.1 km/h 68 % 0 in /  0.0 mm
16:42 48.9 °F /  9.4 °C 39.2 °F /  4.0 °C 30.1 in /  1017.8 hPa WNW 6 mph /  9.7 km/h 11 mph /  17.7 km/h 69 % 0 in /  0.0 mm
16:47 48.9 °F /  9.4 °C 38.8 °F /  3.8 °C 30.1 in /  1018.2 hPa NNW 7 mph /  11.3 km/h 11 mph /  17.7 km/h 68 % 0 in /  0.0 mm
16:52 48.7 °F /  9.3 °C 38.7 °F /  3.7 °C 30.1 in /  1017.8 hPa NW 10 mph /  16.1 km/h 11 mph /  17.7 km/h 68 % 0 in /  0.0 mm
16:57 48.6 °F /  9.2 °C 38.8 °F /  3.8 °C 30.1 in /  1017.8 hPa WNW 6 mph /  9.7 km/h 13 mph /  20.9 km/h 69 % 0 in /  0.0 mm
17:02 48.4 °F /  9.1 °C 38.7 °F /  3.7 °C 30.1 in /  1017.8 hPa West 8 mph /  12.9 km/h 13 mph /  20.9 km/h 69 % 0 in /  0.0 mm
17:07 48 °F /  8.9 °C 39 °F /  3.9 °C 30.1 in /  1018.2 hPa WNW 3 mph /  4.8 km/h 13 mph /  20.9 km/h 71 % 0 in /  0.0 mm
17:12 47.7 °F /  8.7 °C 38.3 °F /  3.5 °C 30.1 in /  1018.2 hPa NW 4 mph /  6.4 km/h 11 mph /  17.7 km/h 70 % 0 in /  0.0 mm
17:17 47.5 °F /  8.6 °C 38.5 °F /  3.6 °C 30.1 in /  1018.2 hPa West 2 mph /  3.2 km/h 9 mph /  14.5 km/h 71 % 0 in /  0.0 mm
17:27 46.8 °F /  8.2 °C 38.3 °F /  3.5 °C 30.1 in /  1018.2 hPa WNW 6 mph /  9.7 km/h 9 mph /  14.5 km/h 72 % 0 in /  0.0 mm
17:32 46.6 °F /  8.1 °C 38.5 °F /  3.6 °C 30.1 in /  1018.5 hPa WNW 5 mph /  8.0 km/h 9 mph /  14.5 km/h 73 % 0 in /  0.0 mm
17:37 46 °F /  7.8 °C 38.3 °F /  3.5 °C 30.1 in /  1018.5 hPa WNW 3 mph /  4.8 km/h 9 mph /  14.5 km/h 74 % 0 in /  0.0 mm
17:42 45.9 °F /  7.7 °C 38.1 °F /  3.4 °C 30.1 in /  1018.5 hPa WNW 3 mph /  4.8 km/h 8 mph /  12.9 km/h 74 % 0 in /  0.0 mm
17:47 45.7 °F /  7.6 °C 37.9 °F /  3.3 °C 30.1 in /  1018.5 hPa NW 5 mph /  8.0 km/h 7 mph /  11.3 km/h 74 % 0 in /  0.0 mm
17:52 45.5 °F /  7.5 °C 38.1 °F /  3.4 °C 30.1 in /  1018.5 hPa WNW 2 mph /  3.2 km/h 8 mph /  12.9 km/h 75 % 0 in /  0.0 mm
17:57 45.1 °F /  7.3 °C 37.9 °F /  3.3 °C 30.1 in /  1018.8 hPa WNW 1 mph /  1.6 km/h 8 mph /  12.9 km/h 76 % 0 in /  0.0 mm
18:02 45 °F /  7.2 °C 38.1 °F /  3.4 °C 30.1 in /  1018.8 hPa WNW 4 mph /  6.4 km/h 8 mph /  12.9 km/h 77 % 0 in /  0.0 mm
18:12 44.4 °F /  6.9 °C 37.9 °F /  3.3 °C 30.1 in /  1018.8 hPa WNW 1 mph /  1.6 km/h 4 mph /  6.4 km/h 78 % 0 in /  0.0 mm
18:17 44.2 °F /  6.8 °C 37.8 °F /  3.2 °C 30.1 in /  1018.8 hPa WNW 1 mph /  1.6 km/h 4 mph /  6.4 km/h 78 % 0 in /  0.0 mm
18:27 43.5 °F /  6.4 °C 37.8 °F /  3.2 °C 30.1 in /  1019.2 hPa West 2 mph /  3.2 km/h 3 mph /  4.8 km/h 80 % 0 in /  0.0 mm
18:32 43.3 °F /  6.3 °C 37.9 °F /  3.3 °C 30.1 in /  1019.2 hPa Calm   2 mph /  3.2 km/h 81 % 0 in /  0.0 mm
18:37 43.2 °F /  6.2 °C 37.8 °F /  3.2 °C 30.1 in /  1019.2 hPa WNW 1 mph /  1.6 km/h 3 mph /  4.8 km/h 81 % 0 in /  0.0 mm
18:42 42.8 °F /  6.0 °C 37.8 °F /  3.2 °C 30.1 in /  1019.2 hPa WNW 3 mph /  4.8 km/h 4 mph /  6.4 km/h 82 % 0 in /  0.0 mm
18:47 43 °F /  6.1 °C 37.9 °F /  3.3 °C 30.1 in /  1019.2 hPa WNW 5 mph /  8.0 km/h 5 mph /  8.0 km/h 82 % 0 in /  0.0 mm
18:57 42.8 °F /  6.0 °C 37.8 °F /  3.2 °C 30.1 in /  1019.5 hPa WNW 2 mph /  3.2 km/h 6 mph /  9.7 km/h 82 % 0 in /  0.0 mm
19:02 42.4 °F /  5.8 °C 37.4 °F /  3.0 °C 30.1 in /  1019.5 hPa Calm   5 mph /  8.0 km/h 82 % 0 in /  0.0 mm
19:07 42.4 °F /  5.8 °C 37.6 °F /  3.1 °C 30.1 in /  1019.5 hPa WNW 1 mph /  1.6 km/h 5 mph /  8.0 km/h 83 % 0 in /  0.0 mm
19:12 42.3 °F /  5.7 °C 37.4 °F /  3.0 °C 30.1 in /  1019.5 hPa Calm   3 mph /  4.8 km/h 83 % 0 in /  0.0 mm
19:17 42.3 °F /  5.7 °C 37.4 °F /  3.0 °C 30.1 in /  1019.5 hPa West 2 mph /  3.2 km/h 2 mph /  3.2 km/h 83 % 0 in /  0.0 mm
19:22 42.3 °F /  5.7 °C 37.4 °F /  3.0 °C 30.1 in /  1019.5 hPa WSW 2 mph /  3.2 km/h 3 mph /  4.8 km/h 83 % 0 in /  0.0 mm
19:27 42.1 °F /  5.6 °C 37.2 °F /  2.9 °C 30.1 in /  1019.5 hPa Calm   3 mph /  4.8 km/h 83 % 0 in /  0.0 mm
19:32 41.7 °F /  5.4 °C 37.2 °F /  2.9 °C 30.1 in /  1019.5 hPa West 1 mph /  1.6 km/h 3 mph /  4.8 km/h 84 % 0 in /  0.0 mm
19:37 41.7 °F /  5.4 °C 37.6 °F /  3.1 °C 30.1 in /  1019.9 hPa WNW 2 mph /  3.2 km/h 4 mph /  6.4 km/h 85 % 0 in /  0.0 mm
19:42 41.7 °F /  5.4 °C 37.2 °F /  2.9 °C 30.1 in /  1019.9 hPa WNW 3 mph /  4.8 km/h 4 mph /  6.4 km/h 84 % 0 in /  0.0 mm
19:47 41.7 °F /  5.4 °C 37.6 °F /  3.1 °C 30.1 in /  1019.9 hPa WNW 3 mph /  4.8 km/h 5 mph /  8.0 km/h 85 % 0 in /  0.0 mm
19:52 41.5 °F /  5.3 °C 37.4 °F /  3.0 °C 30.1 in /  1019.9 hPa WNW 3 mph /  4.8 km/h 5 mph /  8.0 km/h 85 % 0 in /  0.0 mm
19:57 41.5 °F /  5.3 °C 37.4 °F /  3.0 °C 30.1 in /  1019.9 hPa WNW 1 mph /  1.6 km/h 5 mph /  8.0 km/h 85 % 0 in /  0.0 mm
20:02 41.4 °F /  5.2 °C 37.2 °F /  2.9 °C 30.1 in /  1019.9 hPa WNW 3 mph /  4.8 km/h 4 mph /  6.4 km/h 85 % 0 in /  0.0 mm
20:07 41.4 °F /  5.2 °C 37.2 °F /  2.9 °C 30.1 in /  1019.9 hPa NW 1 mph /  1.6 km/h 4 mph /  6.4 km/h 85 % 0 in /  0.0 mm
20:12 41.2 °F /  5.1 °C 37 °F /  2.8 °C 30.1 in /  1019.9 hPa Calm   3 mph /  4.8 km/h 85 % 0 in /  0.0 mm
20:17 41 °F /  5.0 °C 37.2 °F /  2.9 °C 30.1 in /  1019.9 hPa Calm   3 mph /  4.8 km/h 86 % 0 in /  0.0 mm
20:22 40.8 °F /  4.9 °C 37 °F /  2.8 °C 30.1 in /  1019.9 hPa Calm   2 mph /  3.2 km/h 86 % 0 in /  0.0 mm
20:27 40.8 °F /  4.9 °C 37 °F /  2.8 °C 30.1 in /  1019.9 hPa Calm   1 mph /  1.6 km/h 86 % 0 in /  0.0 mm
20:32 40.5 °F /  4.7 °C 36.7 °F /  2.6 °C 30.1 in /  1019.9 hPa Calm   2 mph /  3.2 km/h 86 % 0 in /  0.0 mm
20:37 40.3 °F /  4.6 °C 36.7 °F /  2.6 °C 30.1 in /  1019.9 hPa Calm   2 mph /  3.2 km/h 87 % 0 in /  0.0 mm
20:42 40.5 °F /  4.7 °C 36.9 °F /  2.7 °C 30.1 in /  1019.9 hPa Calm     87 % 0 in /  0.0 mm
20:47 40.6 °F /  4.8 °C 37 °F /  2.8 °C 30.1 in /  1020.2 hPa WNW 1 mph /  1.6 km/h 1 mph /  1.6 km/h 87 % 0 in /  0.0 mm
20:57 40.6 °F /  4.8 °C 36.9 °F /  2.7 °C 30.1 in /  1020.2 hPa WNW 1 mph /  1.6 km/h 2 mph /  3.2 km/h 86 % 0 in /  0.0 mm
21:02 40.6 °F /  4.8 °C 36.9 °F /  2.7 °C 30.1 in /  1020.2 hPa Calm   3 mph /  4.8 km/h 86 % 0 in /  0.0 mm
21:07 40.6 °F /  4.8 °C 36.9 °F /  2.7 °C 30.1 in /  1020.5 hPa Calm   3 mph /  4.8 km/h 86 % 0 in /  0.0 mm
21:12 40.5 °F /  4.7 °C 36.3 °F /  2.4 °C 30.1 in /  1020.5 hPa Calm   3 mph /  4.8 km/h 85 % 0 in /  0.0 mm
21:17 39.9 °F /  4.4 °C 36.1 °F /  2.3 °C 30.1 in /  1020.5 hPa Calm   2 mph /  3.2 km/h 86 % 0 in /  0.0 mm
21:22 39.7 °F /  4.3 °C 36.1 °F /  2.3 °C 30.1 in /  1020.5 hPa Calm   2 mph /  3.2 km/h 87 % 0 in /  0.0 mm
21:27 39.9 °F /  4.4 °C 36.3 °F /  2.4 °C 30.1 in /  1020.5 hPa Calm   1 mph /  1.6 km/h 87 % 0 in /  0.0 mm
21:32 39.7 °F /  4.3 °C 36.1 °F /  2.3 °C 30.1 in /  1020.5 hPa Calm   2 mph /  3.2 km/h 87 % 0 in /  0.0 mm
21:37 39.6 °F /  4.2 °C 36 °F /  2.2 °C 30.1 in /  1020.5 hPa Calm   2 mph /  3.2 km/h 87 % 0 in /  0.0 mm
21:42 39 °F /  3.9 °C 35.4 °F /  1.9 °C 30.1 in /  1020.5 hPa Calm   2 mph /  3.2 km/h 87 % 0 in /  0.0 mm
21:47 39 °F /  3.9 °C 35.8 °F /  2.1 °C 30.1 in /  1020.5 hPa WNW 1 mph /  1.6 km/h 2 mph /  3.2 km/h 88 % 0 in /  0.0 mm
21:52 39 °F /  3.9 °C 35.8 °F /  2.1 °C 30.1 in /  1020.5 hPa WNW 1 mph /  1.6 km/h 2 mph /  3.2 km/h 88 % 0 in /  0.0 mm
21:57 39.2 °F /  4.0 °C 36 °F /  2.2 °C 30.1 in /  1020.5 hPa NW 1 mph /  1.6 km/h 3 mph /  4.8 km/h 88 % 0 in /  0.0 mm
22:02 39.4 °F /  4.1 °C 36.5 °F /  2.5 °C 30.1 in /  1020.5 hPa WNW 1 mph /  1.6 km/h 3 mph /  4.8 km/h 89 % 0 in /  0.0 mm
22:07 39.6 °F /  4.2 °C 36.3 °F /  2.4 °C 30.1 in /  1020.5 hPa West 2 mph /  3.2 km/h 3 mph /  4.8 km/h 88 % 0 in /  0.0 mm
22:12 39.6 °F /  4.2 °C 36.3 °F /  2.4 °C 30.2 in /  1020.9 hPa WNW 1 mph /  1.6 km/h 3 mph /  4.8 km/h 88 % 0 in /  0.0 mm
22:17 39.6 °F /  4.2 °C 36.3 °F /  2.4 °C 30.2 in /  1020.9 hPa Calm   3 mph /  4.8 km/h 88 % 0 in /  0.0 mm
22:22 39.6 °F /  4.2 °C 36.3 °F /  2.4 °C 30.2 in /  1020.9 hPa NW 1 mph /  1.6 km/h 3 mph /  4.8 km/h 88 % 0 in /  0.0 mm
22:27 39.6 °F /  4.2 °C 36.3 °F /  2.4 °C 30.2 in /  1020.9 hPa NW 2 mph /  3.2 km/h 3 mph /  4.8 km/h 88 % 0 in /  0.0 mm
22:32 39.6 °F /  4.2 °C 36.3 °F /  2.4 °C 30.2 in /  1020.9 hPa NW 1 mph /  1.6 km/h 4 mph /  6.4 km/h 88 % 0 in /  0.0 mm
22:37 39.6 °F /  4.2 °C 36.3 °F /  2.4 °C 30.2 in /  1020.9 hPa NW 1 mph /  1.6 km/h 4 mph /  6.4 km/h 88 % 0 in /  0.0 mm
22:42 39.6 °F /  4.2 °C 36.3 °F /  2.4 °C 30.2 in /  1020.9 hPa WNW 3 mph /  4.8 km/h 4 mph /  6.4 km/h 88 % 0 in /  0.0 mm
22:47 39.7 °F /  4.3 °C 36.5 °F /  2.5 °C 30.2 in /  1020.9 hPa NW 1 mph /  1.6 km/h 5 mph /  8.0 km/h 88 % 0 in /  0.0 mm
22:52 39.7 °F /  4.3 °C 36.5 °F /  2.5 °C 30.2 in /  1020.9 hPa WNW 5 mph /  8.0 km/h 6 mph /  9.7 km/h 88 % 0 in /  0.0 mm
22:57 39.7 °F /  4.3 °C 36.5 °F /  2.5 °C 30.2 in /  1020.9 hPa WNW 3 mph /  4.8 km/h 7 mph /  11.3 km/h 88 % 0 in /  0.0 mm
23:02 39.6 °F /  4.2 °C 36.3 °F /  2.4 °C 30.2 in /  1020.9 hPa WNW 3 mph /  4.8 km/h 7 mph /  11.3 km/h 88 % 0 in /  0.0 mm
23:07 39.6 °F /  4.2 °C 36.5 °F /  2.5 °C 30.2 in /  1020.9 hPa NNW 2 mph /  3.2 km/h 7 mph /  11.3 km/h 89 % 0 in /  0.0 mm
23:12 39.6 °F /  4.2 °C 36.5 °F /  2.5 °C 30.2 in /  1020.9 hPa WNW 4 mph /  6.4 km/h 7 mph /  11.3 km/h 89 % 0 in /  0.0 mm
23:17 39.6 °F /  4.2 °C 36.5 °F /  2.5 °C 30.2 in /  1020.9 hPa NNW 2 mph /  3.2 km/h 8 mph /  12.9 km/h 89 % 0 in /  0.0 mm
23:22 39.7 °F /  4.3 °C 36.7 °F /  2.6 °C 30.2 in /  1020.9 hPa NW 4 mph /  6.4 km/h 8 mph /  12.9 km/h 89 % 0 in /  0.0 mm
23:32 39.6 °F /  4.2 °C 36.9 °F /  2.7 °C 30.2 in /  1020.9 hPa NNW 1 mph /  1.6 km/h 6 mph /  9.7 km/h 90 % 0 in /  0.0 mm
23:37 39.6 °F /  4.2 °C 36.9 °F /  2.7 °C 30.2 in /  1020.9 hPa WNW 2 mph /  3.2 km/h 5 mph /  8.0 km/h 90 % 0 in /  0.0 mm
23:42 39.6 °F /  4.2 °C 36.9 °F /  2.7 °C 30.2 in /  1021.2 hPa NNW 3 mph /  4.8 km/h 4 mph /  6.4 km/h 90 % 0 in /  0.0 mm
23:47 39.6 °F /  4.2 °C 36.9 °F /  2.7 °C 30.2 in /  1021.2 hPa NW 4 mph /  6.4 km/h 5 mph /  8.0 km/h 90 % 0 in /  0.0 mm
23:52 39.4 °F /  4.1 °C 36.7 °F /  2.6 °C 30.2 in /  1021.2 hPa Calm   5 mph /  8.0 km/h 90 % 0 in /  0.0 mm
23:57 39.4 °F /  4.1 °C 37 °F /  2.8 °C 30.2 in /  1021.2 hPa NW 2 mph /  3.2 km/h 5 mph /  8.0 km/h 91 % 0 in /  0.0 mm
Meteo18
Compliments of Weather Underground - 4 mb

Script developed by  Jim McMurry - jmcmurry@mwt.net Adapted for the template by  Wim van der Kuil - Leuven-Template.eu

You find our weather info also at:

European Weather Network

Weather Underground

Equipment we use:

Weather-station
Davis Vue

Weather-program
Meteohub

Weather-server
Raspberry PI 2 B+

Provider
1 and 1

Davis Vue

Meteohub

Raspberry PI 2 B+

1 and 1